San Diego, California
Traffic Map
Current Weather Conditions
San Diego, California
Broken Clouds
Broken Clouds
24°
Feels Like: 24°
Wind Chill: 24° Ceiling: 1800
Heat Index: 24° Visibility: 10mi
Dew Point: 17° Wind: 6mph
Humidity: 64% Direction: 310° (NW)
Pressure: 29.94in Gusts: 0mph
Raw Report DataKSAN 292351Z 31005KT 10SM BKN018 BKN090 24/17 A2994 RMK AO2 SLP138 T02440172 10256 20233 58005
Traffic Incident Summary
Active as of:
Severity:
Category:
InformationThere was an issue retrieving the traffic information for this location. Please try a different location or try again shortly.
Advertisements
Track Severe Weather on mobile